KNID

China Lake Naws (Armitage Field) Airport

China Lake, California, USA
METAR KNID 170556Z 21009KT 10SM CLR 14/M12 A3011 RMK AO2 SLP187 T01391122 10256 20139 51009 $
Observed Flight Rules
Oct-17 @ 05:56 UTC (28 minutes ago) Visual Flight Rules
Wind Visibility Clouds
210° at 9 knots 10 miles
  • Clear skies
Temperatures Readings
Current 14°C / 57°F
Dewpoint -12°C / 10°F
Humidity 15%
Altimeter 30.11" Hg
Pressure 1018.7 hPa
Elevation 696
METAR KNID 170556Z 21009KT 10SM CLR 14/M12 A3011 RMK AO2 SLP187 T01391122 10256 20139 51009 $
Observed Flight Rules
Oct-17 @ 05:56 UTC
(28 minutes ago)
VFR
Wind Visibility
210° at 9 knots 10 miles
Clouds
  • Clear skies
Temperature Dewpoint
14°C / 57°F -12°C / 10°F
Humidity Altimeter Pressure
15% 30.11" Hg 1018.7 hPa